DAL1318 KLAX-KSLC
Flight info
| Callsign | DAL1318 |
|---|---|
| Flight time | N/A |
| Altitude | 35000 |
| Route | OSHNN1 BEALE Q842 WINEN MLF PITTT2 |
| Aircraft | B739/M-SDE2E3FGHIRWXY/LB1 |
Departure
| Time | 2026-05-06 03:40 |
|---|---|
| Airport | Los Angeles International Airport (KLAX) |
Arrival
| Time | N/A |
|---|---|
| Airport | Salt Lake City International Airport (KSLC) |
| Time | Latitude | Longitude | Altitude | Speed | Heading |
|---|---|---|---|---|---|
| 2026-05-06 03:03 | 33.94712 | -118.40718 | 106 ft | 0 kts | 153° |
| 2026-05-06 03:21 | 33.94716 | -118.40720 | 125 ft | 2 kts | 153° |
| 2026-05-06 03:22 | 33.94738 | -118.40735 | 121 ft | 3 kts | 149° |
| 2026-05-06 03:22 | 33.94747 | -118.40741 | 119 ft | 1 kts | 150° |
| 2026-05-06 03:22 | 33.94747 | -118.40740 | 119 ft | 2 kts | 133° |
| 2026-05-06 03:22 | 33.94752 | -118.40729 | 122 ft | 3 kts | 67° |
| 2026-05-06 03:23 | 33.94764 | -118.40710 | 123 ft | 3 kts | 48° |
| 2026-05-06 03:23 | 33.94774 | -118.40692 | 125 ft | 2 kts | 69° |
| 2026-05-06 03:23 | 33.94776 | -118.40663 | 120 ft | 1 kts | 262° |
| 2026-05-06 03:23 | 33.94777 | -118.40660 | 120 ft | 0 kts | 262° |
| 2026-05-06 03:28 | 33.94774 | -118.40687 | 125 ft | 11 kts | 262° |
| 2026-05-06 03:28 | 33.94759 | -118.40833 | 123 ft | 18 kts | 263° |
| 2026-05-06 03:29 | 33.94744 | -118.40978 | 122 ft | 21 kts | 263° |
| 2026-05-06 03:29 | 33.94729 | -118.41127 | 123 ft | 14 kts | 262° |
| 2026-05-06 03:29 | 33.94704 | -118.41229 | 123 ft | 16 kts | 253° |
| 2026-05-06 03:29 | 33.94690 | -118.41314 | 122 ft | 3 kts | 263° |
| 2026-05-06 03:30 | 33.94685 | -118.41360 | 123 ft | 2 kts | 262° |
| 2026-05-06 03:30 | 33.94670 | -118.41386 | 120 ft | 6 kts | 204° |
| 2026-05-06 03:30 | 33.94614 | -118.41359 | 124 ft | 16 kts | 157° |
| 2026-05-06 03:30 | 33.94563 | -118.41357 | 122 ft | 11 kts | 192° |
| 2026-05-06 03:31 | 33.94460 | -118.41353 | 122 ft | 15 kts | 174° |
| 2026-05-06 03:31 | 33.94404 | -118.41346 | 123 ft | 17 kts | 174° |
| 2026-05-06 03:31 | 33.94370 | -118.41342 | 123 ft | 20 kts | 174° |
| 2026-05-06 03:31 | 33.94254 | -118.41323 | 123 ft | 28 kts | 169° |
| 2026-05-06 03:32 | 33.94136 | -118.41301 | 123 ft | 23 kts | 174° |
| 2026-05-06 03:32 | 33.94063 | -118.41291 | 125 ft | 18 kts | 173° |
| 2026-05-06 03:32 | 33.93978 | -118.41279 | 124 ft | 18 kts | 173° |
| 2026-05-06 03:32 | 33.93913 | -118.41269 | 123 ft | 0 kts | 173° |
| 2026-05-06 03:33 | 33.93897 | -118.41267 | 122 ft | 4 kts | 173° |
| 2026-05-06 03:33 | 33.93855 | -118.41261 | 121 ft | 6 kts | 173° |
| 2026-05-06 03:33 | 33.93775 | -118.41245 | 123 ft | 8 kts | 160° |
| 2026-05-06 03:33 | 33.93763 | -118.41139 | 125 ft | 14 kts | 83° |
| 2026-05-06 03:34 | 33.93776 | -118.41014 | 125 ft | 14 kts | 84° |
| 2026-05-06 03:34 | 33.93791 | -118.40855 | 125 ft | 21 kts | 82° |
| 2026-05-06 03:34 | 33.93810 | -118.40670 | 125 ft | 20 kts | 83° |
| 2026-05-06 03:34 | 33.93825 | -118.40512 | 120 ft | 17 kts | 83° |
| 2026-05-06 03:35 | 33.93839 | -118.40378 | 125 ft | 20 kts | 83° |
| 2026-05-06 03:35 | 33.93860 | -118.40168 | 125 ft | 31 kts | 83° |
| 2026-05-06 03:35 | 33.93872 | -118.40058 | 123 ft | 26 kts | 83° |
| 2026-05-06 03:35 | 33.93891 | -118.39869 | 125 ft | 20 kts | 83° |
| 2026-05-06 03:36 | 33.93909 | -118.39690 | 125 ft | 24 kts | 83° |
| 2026-05-06 03:36 | 33.93930 | -118.39489 | 125 ft | 27 kts | 83° |
| 2026-05-06 03:36 | 33.93947 | -118.39322 | 125 ft | 19 kts | 82° |
| 2026-05-06 03:36 | 33.93960 | -118.39196 | 125 ft | 16 kts | 83° |
| 2026-05-06 03:37 | 33.93969 | -118.39099 | 123 ft | 19 kts | 83° |
| 2026-05-06 03:37 | 33.93973 | -118.39061 | 125 ft | 7 kts | 83° |
| 2026-05-06 03:37 | 33.93977 | -118.39024 | 125 ft | 10 kts | 83° |
| 2026-05-06 03:37 | 33.93985 | -118.38936 | 123 ft | 14 kts | 83° |
| 2026-05-06 03:38 | 33.93999 | -118.38794 | 121 ft | 20 kts | 83° |
| 2026-05-06 03:38 | 33.94016 | -118.38618 | 123 ft | 23 kts | 83° |
| 2026-05-06 03:38 | 33.94034 | -118.38456 | 121 ft | 14 kts | 81° |
| 2026-05-06 03:38 | 33.94044 | -118.38361 | 123 ft | 10 kts | 86° |
| 2026-05-06 03:39 | 33.94040 | -118.38311 | 121 ft | 3 kts | 131° |
| 2026-05-06 03:39 | 33.93994 | -118.38312 | 123 ft | 10 kts | 190° |
| 2026-05-06 03:39 | 33.93948 | -118.38389 | 124 ft | 15 kts | 260° |
| 2026-05-06 03:39 | 33.93945 | -118.38416 | 125 ft | 18 kts | 263° |
| 2026-05-06 03:40 | 33.93897 | -118.38854 | 121 ft | 95 kts | 261° |
| 2026-05-06 03:40 | 33.93806 | -118.39778 | 125 ft | 155 kts | 263° |
| 2026-05-06 03:40 | 33.93666 | -118.41048 | 570 ft | 174 kts | 262° |
| 2026-05-06 03:40 | 33.93544 | -118.42066 | 782 ft | 201 kts | 261° |
| 2026-05-06 03:41 | 33.93342 | -118.43671 | 1056 ft | 234 kts | 260° |
| 2026-05-06 03:41 | 33.93088 | -118.45670 | 1920 ft | 245 kts | 262° |
| 2026-05-06 03:41 | 33.92827 | -118.47704 | 3036 ft | 244 kts | 261° |
| 2026-05-06 03:41 | 33.92607 | -118.49679 | 4023 ft | 227 kts | 264° |
| 2026-05-06 03:42 | 33.92471 | -118.51531 | 4757 ft | 226 kts | 265° |
| 2026-05-06 03:42 | 33.92336 | -118.53471 | 5117 ft | 239 kts | 266° |
| 2026-05-06 03:42 | 33.92178 | -118.55507 | 5481 ft | 248 kts | 263° |
| 2026-05-06 03:42 | 33.91603 | -118.57460 | 5875 ft | 248 kts | 238° |
| 2026-05-06 03:43 | 33.90603 | -118.59136 | 6399 ft | 254 kts | 227° |
| 2026-05-06 03:43 | 33.89130 | -118.60380 | 6884 ft | 260 kts | 203° |
| 2026-05-06 03:43 | 33.87365 | -118.60857 | 7379 ft | 270 kts | 180° |
| 2026-05-06 03:43 | 33.85465 | -118.60497 | 7895 ft | 279 kts | 158° |
| 2026-05-06 03:44 | 33.83775 | -118.59320 | 8425 ft | 286 kts | 136° |
| 2026-05-06 03:44 | 33.82518 | -118.57490 | 8948 ft | 290 kts | 116° |
| 2026-05-06 03:44 | 33.81860 | -118.55269 | 9458 ft | 286 kts | 95° |
| 2026-05-06 03:44 | 33.81889 | -118.52910 | 9974 ft | 281 kts | 75° |
| 2026-05-06 03:45 | 33.82619 | -118.50727 | 10459 ft | 279 kts | 54° |
| 2026-05-06 03:45 | 33.83921 | -118.49053 | 10936 ft | 277 kts | 34° |
| 2026-05-06 03:45 | 33.85653 | -118.48050 | 11421 ft | 278 kts | 14° |
| 2026-05-06 03:45 | 33.87586 | -118.47865 | 11923 ft | 282 kts | 353° |
| 2026-05-06 03:46 | 33.89486 | -118.48538 | 12439 ft | 291 kts | 333° |
| 2026-05-06 03:46 | 33.90949 | -118.49790 | 12897 ft | 300 kts | 316° |
| 2026-05-06 03:46 | 33.92187 | -118.51833 | 13421 ft | 306 kts | 297° |
| 2026-05-06 03:46 | 33.92881 | -118.54178 | 13966 ft | 306 kts | 288° |
| 2026-05-06 03:47 | 33.93652 | -118.56628 | 14394 ft | 308 kts | 306° |
| 2026-05-06 03:47 | 33.95168 | -118.58310 | 14831 ft | 301 kts | 336° |
| 2026-05-06 03:47 | 33.97195 | -118.59003 | 15001 ft | 311 kts | 359° |
| 2026-05-06 03:47 | 33.99231 | -118.58456 | 15064 ft | 305 kts | 28° |
| 2026-05-06 03:48 | 34.00800 | -118.56783 | 15048 ft | 305 kts | 58° |
| 2026-05-06 03:48 | 34.01718 | -118.54389 | 15092 ft | 326 kts | 69° |
| 2026-05-06 03:48 | 34.02455 | -118.51804 | 15671 ft | 328 kts | 70° |
| 2026-05-06 03:48 | 34.03217 | -118.49161 | 16120 ft | 335 kts | 68° |
| 2026-05-06 03:49 | 34.04109 | -118.46545 | 16651 ft | 340 kts | 64° |
| 2026-05-06 03:49 | 34.05119 | -118.43957 | 17169 ft | 344 kts | 63° |
| 2026-05-06 03:49 | 34.06183 | -118.41348 | 17704 ft | 347 kts | 62° |
| 2026-05-06 03:49 | 34.07257 | -118.38738 | 18238 ft | 348 kts | 62° |
| 2026-05-06 03:50 | 34.08330 | -118.36122 | 18724 ft | 351 kts | 63° |
| 2026-05-06 03:50 | 34.09412 | -118.33464 | 19196 ft | 354 kts | 63° |
| 2026-05-06 03:50 | 34.10496 | -118.30789 | 19678 ft | 356 kts | 63° |
| 2026-05-06 03:50 | 34.11585 | -118.28088 | 20173 ft | 359 kts | 63° |
| 2026-05-06 03:51 | 34.12673 | -118.25381 | 20683 ft | 361 kts | 63° |